Time;durP1;ratioP1;P1;durP2;ratioP2;P2;SDS_P1;SDS_P2;PMS_P1;PMS_P2;Temp;Humidity;BMP_temperature;BMP_pressure;BME280_temperature;BME280_humidity;BME280_pressure;Samples;Min_cycle;Max_cycle;Signal;HPM_P1;HPM_P2
2021/09/26 00:00:21;;;;;;;3.50;3.20;;;27.50;52.70;;;;;;5082321;28;20979;-40
2021/09/26 00:02:52;;;;;;;3.93;3.60;;;27.40;53.20;;;;;;5082268;28;20870;-39
2021/09/26 00:05:23;;;;;;;4.07;3.40;;;27.30;54.60;;;;;;5082940;28;20452;-40
2021/09/26 00:07:58;;;;;;;4.87;3.33;;;27.20;54.90;;;;;;5082679;28;20450;-41
2021/09/26 00:10:29;;;;;;;3.27;2.97;;;27.20;52.10;;;;;;5085174;28;20473;-40
2021/09/26 00:13:01;;;;;;;3.37;3.00;;;27.10;54.60;;;;;;5068292;28;20565;-42
2021/09/26 00:15:33;;;;;;;5.50;3.67;;;27.00;53.70;;;;;;5066303;28;20474;-38
2021/09/26 00:18:04;;;;;;;3.17;2.97;;;27.10;51.40;;;;;;5065985;28;20457;-44
2021/09/26 00:20:35;;;;;;;4.17;3.87;;;26.90;54.50;;;;;;5065947;28;20520;-40
2021/09/26 00:23:06;;;;;;;3.30;2.80;;;26.80;55.60;;;;;;5066431;28;20477;-40
2021/09/26 00:25:37;;;;;;;5.83;3.57;;;26.70;54.80;;;;;;5066993;28;20871;-42
2021/09/26 00:28:09;;;;;;;4.10;3.80;;;26.70;54.70;;;;;;5066766;28;20431;-40
2021/09/26 00:30:40;;;;;;;4.77;3.70;;;26.60;54.40;;;;;;5065942;28;20452;-46
2021/09/26 00:33:11;;;;;;;4.67;3.47;;;26.60;54.60;;;;;;5065587;28;21193;-41
2021/09/26 00:35:43;;;;;;;3.90;3.33;;;26.60;53.30;;;;;;5066250;28;20455;-41
2021/09/26 00:38:14;;;;;;;3.73;3.43;;;26.60;55.90;;;;;;5066156;28;20444;-44
2021/09/26 00:40:44;;;;;;;3.67;3.37;;;26.50;54.90;;;;;;5085092;28;20530;-45
2021/09/26 00:43:18;;;;;;;3.43;3.13;;;26.50;54.00;;;;;;5086230;28;20464;-43
2021/09/26 00:45:50;;;;;;;3.60;3.23;;;26.50;54.30;;;;;;5085807;28;20458;-41
2021/09/26 00:48:21;;;;;;;3.50;3.20;;;26.50;53.80;;;;;;5085620;28;20472;-43
2021/09/26 00:50:58;;;;;;;3.90;3.40;;;26.40;54.70;;;;;;5085926;28;20931;-40
2021/09/26 00:53:29;;;;;;;3.23;3.03;;;26.30;55.90;;;;;;5086152;28;20453;-42
2021/09/26 00:56:01;;;;;;;3.57;3.30;;;26.10;58.70;;;;;;5086340;28;20447;-40
2021/09/26 00:58:34;;;;;;;4.10;3.70;;;25.90;59.50;;;;;;5086094;28;20507;-40
2021/09/26 01:01:05;;;;;;;3.87;3.47;;;25.70;60.00;;;;;;5084736;28;20832;-40
2021/09/26 01:03:38;;;;;;;3.40;3.10;;;25.60;59.00;;;;;;5085175;28;21106;-43
2021/09/26 01:06:24;;;;;;;3.67;3.37;;;25.60;59.70;;;;;;5085707;28;20456;-40
2021/09/26 01:09:05;;;;;;;4.70;3.40;;;25.60;58.50;;;;;;5085983;28;20460;-44
2021/09/26 01:11:48;;;;;;;4.87;3.63;;;25.60;58.80;;;;;;5078334;28;20447;-41
2021/09/26 01:14:27;;;;;;;3.83;3.53;;;25.50;58.40;;;;;;5065643;28;20456;-41
2021/09/26 01:17:21;;;;;;;4.33;3.97;;;25.50;59.40;;;;;;5065199;28;20429;-43
2021/09/26 01:20:32;;;;;;;4.00;3.67;;;25.40;59.60;;;;;;5065350;28;20441;-42
2021/09/26 01:23:36;;;;;;;4.50;3.27;;;25.20;62.50;;;;;;4984564;28;20619;-40
2021/09/26 01:26:25;;;;;;;4.37;3.80;;;25.00;63.90;;;;;;4984395;28;20764;-42
2021/09/26 01:29:06;;;;;;;5.10;3.43;;;24.80;67.60;;;;;;4984702;28;20433;-44
2021/09/26 01:31:43;;;;;;;4.07;3.67;;;24.60;65.80;;;;;;4982444;28;20448;-41
2021/09/26 01:34:21;;;;;;;4.63;3.83;;;24.40;66.60;;;;;;4984087;28;20448;-40
2021/09/26 01:36:57;;;;;;;3.80;3.50;;;24.40;65.00;;;;;;4983833;28;20499;-41
2021/09/26 01:39:32;;;;;;;4.73;4.20;;;24.30;66.60;;;;;;4984327;28;20452;-40
2021/09/26 01:42:09;;;;;;;4.40;3.50;;;24.20;65.90;;;;;;4983408;28;20554;-41
2021/09/26 01:44:43;;;;;;;3.90;3.50;;;24.00;66.10;;;;;;4984255;28;20447;-40
2021/09/26 01:47:21;;;;;;;3.50;3.20;;;23.90;66.30;;;;;;4983089;28;20947;-40
2021/09/26 01:49:56;;;;;;;3.73;3.43;;;23.80;68.40;;;;;;4983689;28;20460;-40
2021/09/26 01:52:31;;;;;;;4.10;3.80;;;23.70;70.40;;;;;;4983483;28;20479;-40
2021/09/26 01:55:05;;;;;;;4.57;4.17;;;23.60;68.90;;;;;;4983904;28;20475;-41
2021/09/26 01:57:40;;;;;;;3.93;3.43;;;23.60;68.60;;;;;;5056817;28;20447;-43
2021/09/26 02:00:13;;;;;;;4.20;3.57;;;23.50;69.00;;;;;;5082748;28;20451;-40
2021/09/26 02:02:49;;;;;;;3.87;3.47;;;23.40;70.80;;;;;;5064083;28;20508;-38
2021/09/26 02:05:21;;;;;;;5.00;3.90;;;23.30;71.10;;;;;;5064487;28;20467;-38
2021/09/26 02:07:54;;;;;;;4.30;3.87;;;23.20;68.30;;;;;;5064634;28;20947;-39
2021/09/26 02:10:28;;;;;;;5.83;3.60;;;23.30;70.80;;;;;;5064320;28;20448;-41
2021/09/26 02:12:59;;;;;;;4.20;3.80;;;23.10;71.70;;;;;;5064610;28;20456;-38
2021/09/26 02:15:32;;;;;;;4.33;4.03;;;23.00;74.30;;;;;;5063956;28;20448;-40
2021/09/26 02:18:06;;;;;;;8.20;4.70;;;22.80;74.80;;;;;;5064301;28;20424;-42
2021/09/26 02:20:38;;;;;;;5.63;5.13;;;22.70;75.20;;;;;;5064149;28;20463;-38
2021/09/26 02:23:10;;;;;;;6.80;5.37;;;22.80;81.80;;;;;;5064462;28;20448;-42
2021/09/26 02:25:43;;;;;;;7.00;5.87;;;22.80;85.00;;;;;;5064293;28;20455;-39
2021/09/26 02:28:14;;;;;;;7.83;6.93;;;22.70;89.30;;;;;;5064201;28;20456;-41
2021/09/26 02:30:45;;;;;;;8.20;7.10;;;22.70;91.50;;;;;;5063548;28;20482;-39
2021/09/26 02:33:18;;;;;;;10.23;6.97;;;22.70;93.30;;;;;;5074801;28;20446;-38
2021/09/26 02:35:49;;;;;;;8.40;7.00;;;22.50;94.90;;;;;;5084344;28;20436;-39
2021/09/26 02:38:20;;;;;;;7.27;6.60;;;22.30;96.50;;;;;;5084136;28;20425;-39
2021/09/26 02:40:56;;;;;;;7.50;6.70;;;22.20;98.20;;;;;;5083564;28;20498;-39
2021/09/26 02:43:34;;;;;;;9.17;6.87;;;22.10;99.30;;;;;;5084035;28;20813;-39
2021/09/26 02:46:14;;;;;;;8.43;6.77;;;21.90;99.90;;;;;;5083605;28;20447;-38
2021/09/26 02:48:47;;;;;;;7.90;6.93;;;21.90;99.90;;;;;;5084096;28;20918;-38
2021/09/26 02:51:18;;;;;;;7.40;6.70;;;21.70;99.90;;;;;;5083699;28;20418;-38
2021/09/26 02:53:49;;;;;;;8.17;7.10;;;21.60;99.90;;;;;;5084158;28;20475;-39
2021/09/26 02:56:21;;;;;;;9.50;7.60;;;21.60;99.90;;;;;;5083419;28;20455;-38
2021/09/26 02:58:54;;;;;;;7.73;7.03;;;21.50;99.90;;;;;;5083970;28;20422;-40
2021/09/26 03:01:25;;;;;;;8.83;6.73;;;21.40;99.90;;;;;;5081854;28;20509;-39
2021/09/26 03:04:04;;;;;;;7.90;7.30;;;21.30;99.90;;;;;;5083745;28;20428;-38
2021/09/26 03:06:35;;;;;;;7.00;6.40;;;21.20;99.90;;;;;;5083752;28;20492;-38
2021/09/26 03:09:06;;;;;;;7.03;6.33;;;21.10;99.90;;;;;;5083798;28;20451;-38
2021/09/26 03:11:37;;;;;;;8.47;7.50;;;21.00;99.90;;;;;;5082914;28;20482;-39
2021/09/26 03:14:08;;;;;;;7.10;6.50;;;20.90;99.90;;;;;;5083591;28;20479;-39
2021/09/26 03:16:39;;;;;;;8.10;7.10;;;20.90;99.90;;;;;;5082392;28;20477;-38
2021/09/26 03:19:12;;;;;;;8.43;7.33;;;20.80;99.90;;;;;;5083635;28;20443;-38
2021/09/26 03:21:43;;;;;;;7.90;7.20;;;20.70;99.90;;;;;;5078105;28;20484;-38
2021/09/26 03:24:13;;;;;;;8.47;7.67;;;20.70;99.90;;;;;;5063595;28;20476;-38
2021/09/26 03:26:44;;;;;;;8.33;7.53;;;20.70;99.90;;;;;;5063028;28;20443;-38
2021/09/26 03:29:15;;;;;;;9.40;7.37;;;20.50;99.90;;;;;;5063498;28;20440;-38
2021/09/26 03:31:47;;;;;;;8.00;7.27;;;20.50;99.90;;;;;;5061900;28;20423;-39
2021/09/26 03:34:19;;;;;;;10.23;7.23;;;20.50;99.90;;;;;;5063368;28;20483;-38
2021/09/26 03:36:50;;;;;;;8.60;7.37;;;20.50;99.90;;;;;;5063486;28;20410;-39
2021/09/26 03:39:21;;;;;;;7.77;7.07;;;20.50;99.90;;;;;;5063170;28;20422;-41
2021/09/26 03:41:52;;;;;;;9.13;7.53;;;20.40;99.90;;;;;;5062590;28;20480;-38
2021/09/26 03:44:23;;;;;;;7.47;6.77;;;20.40;99.90;;;;;;5062964;28;20423;-38
2021/09/26 03:46:55;;;;;;;7.93;7.13;;;20.30;99.90;;;;;;5062002;28;20476;-38
2021/09/26 03:49:28;;;;;;;8.70;7.87;;;20.30;99.90;;;;;;5063108;28;20423;-40
2021/09/26 03:51:59;;;;;;;8.33;7.63;;;20.30;99.90;;;;;;5062518;28;20483;-38
2021/09/26 03:54:30;;;;;;;8.80;7.90;;;20.20;99.90;;;;;;5063000;28;20437;-38
2021/09/26 03:57:00;;;;;;;8.27;6.87;;;20.20;99.90;;;;;;5062692;28;20423;-38
2021/09/26 03:59:31;;;;;;;7.97;7.10;;;20.30;99.90;;;;;;5062961;28;20733;-41
2021/09/26 04:02:04;;;;;;;7.90;7.20;;;20.10;99.90;;;;;;5078161;28;20506;-38
2021/09/26 04:05:16;;;;;;;7.23;6.50;;;20.00;99.90;;;;;;5083125;28;20457;-40
2021/09/26 04:07:47;;;;;;;7.83;6.83;;;19.90;99.90;;;;;;5082452;28;20425;-38
2021/09/26 04:10:18;;;;;;;9.07;6.20;;;19.80;99.90;;;;;;5083210;28;20420;-39
2021/09/26 04:12:50;;;;;;;7.47;6.70;;;19.70;99.90;;;;;;5062433;28;20427;-40
2021/09/26 04:15:21;;;;;;;7.00;6.40;;;19.70;99.90;;;;;;5062446;28;20423;-38
2021/09/26 04:17:51;;;;;;;8.90;7.00;;;19.70;99.90;;;;;;5061913;28;20446;-39
2021/09/26 04:20:24;;;;;;;8.57;6.63;;;19.60;99.90;;;;;;5062378;28;20456;-40
2021/09/26 04:22:56;;;;;;;8.20;7.40;;;19.50;99.90;;;;;;5061903;28;20477;-38
2021/09/26 04:25:27;;;;;;;7.07;6.37;;;19.30;99.90;;;;;;5062663;28;20442;-38
2021/09/26 04:27:59;;;;;;;8.57;6.53;;;19.30;99.90;;;;;;5062209;28;20444;-39
2021/09/26 04:30:29;;;;;;;7.90;7.10;;;19.20;99.90;;;;;;5061824;28;20472;-38
2021/09/26 04:33:00;;;;;;;11.33;7.70;;;19.10;99.90;;;;;;5061386;28;20426;-38
2021/09/26 04:35:33;;;;;;;7.33;6.60;;;19.00;99.90;;;;;;5062379;28;20480;-38
2021/09/26 04:38:04;;;;;;;8.27;6.20;;;19.00;99.90;;;;;;5062381;28;20489;-39
2021/09/26 04:40:37;;;;;;;7.67;6.80;;;19.00;99.90;;;;;;5062633;28;20441;-38
2021/09/26 04:43:08;;;;;;;10.90;7.70;;;18.90;99.90;;;;;;5061904;28;20542;-41
2021/09/26 04:45:39;;;;;;;8.10;7.40;;;18.80;99.90;;;;;;5062012;28;20452;-38
2021/09/26 04:48:10;;;;;;;8.20;6.87;;;18.70;99.90;;;;;;5061780;28;20475;-38
2021/09/26 04:50:43;;;;;;;7.13;6.50;;;18.70;99.90;;;;;;5073955;28;20458;-38
2021/09/26 04:53:14;;;;;;;9.53;6.90;;;18.70;99.90;;;;;;5081924;28;20478;-38
2021/09/26 04:55:45;;;;;;;7.77;6.97;;;18.60;99.90;;;;;;5083977;28;20443;-38
2021/09/26 04:58:15;;;;;;;9.50;6.70;;;18.50;99.90;;;;;;5085543;28;20432;-39
2021/09/26 05:00:48;;;;;;;10.70;7.13;;;18.40;99.90;;;;;;5085313;28;20508;-39
2021/09/26 05:03:19;;;;;;;12.30;8.40;;;18.30;99.90;;;;;;5084893;28;20462;-38
2021/09/26 05:05:51;;;;;;;7.30;6.60;;;18.30;99.90;;;;;;5085738;28;20448;-38
2021/09/26 05:08:22;;;;;;;9.90;7.77;;;18.20;99.90;;;;;;5085672;28;20436;-38
2021/09/26 05:10:53;;;;;;;7.50;6.70;;;18.20;99.90;;;;;;5086089;28;20419;-39
2021/09/26 05:13:24;;;;;;;8.00;7.03;;;18.00;99.90;;;;;;5085080;28;20457;-38
2021/09/26 05:15:55;;;;;;;8.50;6.67;;;17.90;99.90;;;;;;5085165;28;20459;-38
2021/09/26 05:18:26;;;;;;;7.60;6.60;;;17.90;99.90;;;;;;5085096;28;20448;-39
2021/09/26 05:20:59;;;;;;;9.63;7.70;;;17.80;99.90;;;;;;5085206;28;20475;-38
2021/09/26 05:23:30;;;;;;;9.77;7.20;;;17.80;99.90;;;;;;5085525;28;20481;-38
2021/09/26 05:26:01;;;;;;;7.67;6.97;;;17.70;99.90;;;;;;5085677;28;20469;-39
2021/09/26 05:28:31;;;;;;;9.53;7.77;;;17.70;99.90;;;;;;5085146;28;20623;-39
2021/09/26 05:31:02;;;;;;;8.30;7.43;;;17.60;99.90;;;;;;5084728;28;20509;-39
2021/09/26 05:33:33;;;;;;;8.10;7.40;;;17.50;99.90;;;;;;5084494;28;20545;-39
2021/09/26 05:36:06;;;;;;;9.67;7.60;;;17.50;99.90;;;;;;5084902;28;20447;-39
2021/09/26 05:38:37;;;;;;;8.83;7.93;;;17.50;99.90;;;;;;5085345;28;20410;-41
2021/09/26 05:41:08;;;;;;;10.80;8.27;;;17.50;99.90;;;;;;5085274;28;20444;-40
2021/09/26 05:43:39;;;;;;;8.43;7.63;;;17.50;99.90;;;;;;5084849;28;20475;-39
2021/09/26 05:46:10;;;;;;;9.53;8.30;;;17.40;99.90;;;;;;5084749;28;20474;-39
2021/09/26 05:48:41;;;;;;;8.70;7.80;;;17.40;99.90;;;;;;5085045;28;20467;-39
2021/09/26 05:51:14;;;;;;;11.00;7.40;;;17.30;99.90;;;;;;5084611;28;20449;-38
2021/09/26 05:53:45;;;;;;;10.23;8.50;;;17.20;99.90;;;;;;5084876;28;20867;-39
2021/09/26 05:56:16;;;;;;;8.43;7.53;;;17.10;99.90;;;;;;5084317;28;20986;-40
2021/09/26 05:58:47;;;;;;;8.50;7.40;;;17.00;99.90;;;;;;5084775;28;20445;-40
2021/09/26 06:01:18;;;;;;;7.93;6.90;;;17.00;99.90;;;;;;5083366;28;20490;-38
2021/09/26 06:03:49;;;;;;;8.60;7.63;;;17.00;99.90;;;;;;5084404;28;20479;-40
2021/09/26 06:06:22;;;;;;;10.80;8.27;;;17.00;99.90;;;;;;5084183;28;20497;-39
2021/09/26 06:08:53;;;;;;;8.90;7.90;;;16.90;99.90;;;;;;5085045;28;20491;-39
2021/09/26 06:11:24;;;;;;;10.10;8.03;;;16.90;99.90;;;;;;5083840;28;20448;-40
2021/09/26 06:13:55;;;;;;;9.93;8.93;;;16.80;99.90;;;;;;5083813;28;20461;-38
2021/09/26 06:16:26;;;;;;;10.50;8.50;;;16.80;99.90;;;;;;5083136;28;20429;-39
2021/09/26 06:18:57;;;;;;;9.80;8.60;;;16.70;99.90;;;;;;5084218;28;20422;-40
2021/09/26 06:21:29;;;;;;;9.90;7.80;;;16.70;99.90;;;;;;5083763;28;20474;-39
2021/09/26 06:24:00;;;;;;;8.90;7.60;;;16.60;99.90;;;;;;5084369;28;20788;-39
2021/09/26 06:26:32;;;;;;;10.27;8.23;;;16.50;99.90;;;;;;5083801;28;20520;-39
2021/09/26 06:29:03;;;;;;;9.60;8.43;;;16.60;99.90;;;;;;5084035;28;21167;-40
2021/09/26 06:31:34;;;;;;;10.50;8.23;;;16.60;99.90;;;;;;5082716;28;20866;-39
2021/09/26 06:34:05;;;;;;;9.10;8.20;;;16.50;99.90;;;;;;5083528;28;20494;-39
2021/09/26 06:36:38;;;;;;;10.83;8.33;;;16.50;99.90;;;;;;5083309;28;20443;-39
2021/09/26 06:39:08;;;;;;;13.50;8.50;;;16.40;99.90;;;;;;5083928;28;20463;-41
2021/09/26 06:41:40;;;;;;;10.80;8.80;;;16.20;99.90;;;;;;5083582;28;20454;-39
2021/09/26 06:44:13;;;;;;;13.23;8.07;;;16.20;99.90;;;;;;5083485;28;20482;-39
2021/09/26 06:46:44;;;;;;;8.80;8.00;;;16.20;99.90;;;;;;5082511;28;20469;-39
2021/09/26 06:49:15;;;;;;;8.97;7.63;;;16.10;99.90;;;;;;5083498;28;20524;-38
2021/09/26 06:51:49;;;;;;;9.60;8.03;;;16.10;99.90;;;;;;5083006;28;20439;-39
2021/09/26 06:54:20;;;;;;;10.07;7.90;;;16.10;99.90;;;;;;5083331;28;20490;-39
2021/09/26 06:56:51;;;;;;;9.83;7.97;;;16.10;99.90;;;;;;5083183;28;20481;-39
2021/09/26 06:59:22;;;;;;;8.40;7.50;;;16.00;99.90;;;;;;5083456;28;20454;-39
2021/09/26 07:01:53;;;;;;;10.70;8.20;;;16.00;99.90;;;;;;5081851;28;20475;-39
2021/09/26 07:04:25;;;;;;;10.43;7.50;;;15.90;99.90;;;;;;5083049;28;20443;-39
2021/09/26 07:06:57;;;;;;;10.20;9.00;;;15.90;99.90;;;;;;5082862;28;20454;-39
2021/09/26 07:09:28;;;;;;;10.17;8.60;;;15.90;99.90;;;;;;5083920;28;20419;-39
2021/09/26 07:11:59;;;;;;;9.67;8.60;;;15.80;99.90;;;;;;5083175;28;20443;-39
2021/09/26 07:14:30;;;;;;;11.80;7.63;;;15.80;99.90;;;;;;5083147;28;20487;-39
2021/09/26 07:17:01;;;;;;;9.83;8.37;;;15.80;99.90;;;;;;5082344;28;20444;-41
2021/09/26 07:19:32;;;;;;;9.00;7.90;;;15.70;99.90;;;;;;5083027;28;20444;-41
2021/09/26 07:22:05;;;;;;;8.47;7.60;;;15.80;99.90;;;;;;5083269;28;20436;-38
2021/09/26 07:24:36;;;;;;;9.93;8.83;;;15.70;99.90;;;;;;5083296;28;20448;-39
2021/09/26 07:27:15;;;;;;;9.77;7.57;;;15.70;99.90;;;;;;5082840;28;20523;-39
2021/09/26 07:29:46;;;;;;;13.30;6.90;;;15.60;99.90;;;;;;5083017;28;20447;-39
2021/09/26 07:32:17;;;;;;;9.40;6.70;;;15.60;99.90;;;;;;5082073;28;20537;-39
2021/09/26 07:34:50;;;;;;;6.83;5.40;;;15.60;99.90;;;;;;5083003;28;20462;-38
2021/09/26 07:37:25;;;;;;;6.23;5.30;;;15.60;99.90;;;;;;5082901;28;20471;-38
2021/09/26 07:39:56;;;;;;;6.33;5.63;;;15.80;99.90;;;;;;5083273;28;20442;-38
2021/09/26 07:42:27;;;;;;;6.03;4.30;;;15.80;99.90;;;;;;5082615;28;20561;-38
2021/09/26 07:45:02;;;;;;;4.97;4.40;;;15.90;99.90;;;;;;5082604;28;20473;-38
2021/09/26 07:47:33;;;;;;;4.80;4.40;;;16.00;99.90;;;;;;5082129;28;20981;-38
2021/09/26 07:50:04;;;;;;;4.93;4.27;;;15.90;99.90;;;;;;5083049;28;20455;-38
2021/09/26 07:52:37;;;;;;;5.13;4.30;;;15.90;99.90;;;;;;5082423;28;20467;-38
2021/09/26 07:55:09;;;;;;;5.40;4.37;;;15.90;99.90;;;;;;5083034;28;20509;-38
2021/09/26 07:57:40;;;;;;;5.00;4.43;;;15.90;99.90;;;;;;5082498;28;20493;-40
2021/09/26 08:00:12;;;;;;;4.80;4.40;;;15.80;99.90;;;;;;5082674;28;20435;-42
2021/09/26 08:02:44;;;;;;;4.30;3.90;;;15.70;99.90;;;;;;5081471;28;20671;-39
2021/09/26 08:05:15;;;;;;;4.73;4.20;;;15.70;99.90;;;;;;5082737;28;20443;-38
2021/09/26 08:07:47;;;;;;;8.43;4.40;;;15.70;99.90;;;;;;5082386;28;20471;-39
2021/09/26 08:10:18;;;;;;;4.70;3.90;;;15.60;99.90;;;;;;5082941;28;20432;-39
2021/09/26 08:12:49;;;;;;;4.97;4.47;;;15.60;99.90;;;;;;5082374;28;20448;-38
2021/09/26 08:15:21;;;;;;;5.43;3.53;;;15.50;99.90;;;;;;5081903;28;20494;-38
2021/09/26 08:17:52;;;;;;;4.43;3.50;;;15.60;99.90;;;;;;5082109;28;20458;-39
2021/09/26 08:20:23;;;;;;;5.40;3.90;;;15.60;99.90;;;;;;5082454;28;20461;-39
2021/09/26 08:22:56;;;;;;;4.13;3.73;;;15.50;99.90;;;;;;5082148;28;20439;-39
2021/09/26 08:25:27;;;;;;;4.83;3.77;;;15.50;99.90;;;;;;5082572;28;20493;-39
2021/09/26 08:27:58;;;;;;;4.47;3.90;;;15.60;99.90;;;;;;5082121;28;20464;-39
2021/09/26 08:30:29;;;;;;;5.33;3.90;;;15.50;99.90;;;;;;5082889;28;20448;-40
2021/09/26 08:33:00;;;;;;;5.63;3.40;;;15.50;99.90;;;;;;5085810;28;20481;-39
2021/09/26 08:35:31;;;;;;;3.90;3.60;;;15.40;99.90;;;;;;5085771;28;20517;-40
2021/09/26 08:38:03;;;;;;;5.47;4.27;;;15.40;99.90;;;;;;5086424;28;20450;-40
2021/09/26 08:40:34;;;;;;;4.20;3.80;;;15.30;99.90;;;;;;5086516;28;20725;-40
2021/09/26 08:43:06;;;;;;;4.27;3.87;;;15.20;99.90;;;;;;5085902;28;20477;-40
2021/09/26 08:45:41;;;;;;;6.87;4.10;;;15.20;99.90;;;;;;5085517;28;20485;-41
2021/09/26 08:48:13;;;;;;;5.50;4.23;;;15.20;99.90;;;;;;5085525;28;20478;-39
2021/09/26 08:50:45;;;;;;;5.53;3.60;;;15.10;99.90;;;;;;5086006;28;20447;-39
2021/09/26 08:53:21;;;;;;;4.70;4.20;;;15.10;99.90;;;;;;5085937;28;20451;-40
2021/09/26 08:55:52;;;;;;;4.97;4.03;;;15.10;99.90;;;;;;5085927;28;20499;-40
2021/09/26 08:58:23;;;;;;;4.50;4.10;;;15.10;99.90;;;;;;5085924;28;20495;-39
2021/09/26 09:00:54;;;;;;;3.97;3.57;;;15.10;99.90;;;;;;5085028;28;20451;-39
2021/09/26 09:03:47;;;;;;;3.50;3.20;;;15.00;99.90;;;;;;5084892;28;20455;-39
2021/09/26 09:06:19;;;;;;;3.93;3.47;;;15.00;99.90;;;;;;5084870;28;20443;-39
2021/09/26 09:08:51;;;;;;;3.80;3.60;;;15.00;99.90;;;;;;5085443;28;20558;-39
2021/09/26 09:11:23;;;;;;;4.57;4.10;;;15.00;99.90;;;;;;5085740;28;20903;-40
2021/09/26 09:14:01;;;;;;;4.30;3.93;;;15.00;99.90;;;;;;5085182;28;20470;-39
2021/09/26 09:16:34;;;;;;;3.90;3.40;;;15.00;99.90;;;;;;5084245;28;20459;-39
2021/09/26 09:19:05;;;;;;;3.70;3.40;;;15.00;99.90;;;;;;5085358;28;20451;-39
2021/09/26 09:21:37;;;;;;;4.67;4.27;;;15.10;99.90;;;;;;5085089;28;20470;-42
2021/09/26 09:24:25;;;;;;;4.73;4.23;;;15.10;99.90;;;;;;5085272;28;20447;-39
2021/09/26 09:26:57;;;;;;;5.30;3.90;;;15.10;99.90;;;;;;5084724;28;20444;-39
2021/09/26 09:29:28;;;;;;;3.70;3.40;;;15.20;99.90;;;;;;5085704;28;20435;-38
2021/09/26 09:31:59;;;;;;;3.63;3.33;;;15.20;99.90;;;;;;5084012;28;20447;-40
2021/09/26 09:34:33;;;;;;;3.87;3.57;;;15.20;99.90;;;;;;5084986;28;20443;-39
2021/09/26 09:37:15;;;;;;;4.27;3.50;;;15.20;99.90;;;;;;5084658;28;20459;-41
2021/09/26 09:40:11;;;;;;;3.50;3.20;;;15.30;99.90;;;;;;5085142;28;20490;-39
2021/09/26 09:42:44;;;;;;;4.37;3.80;;;15.30;99.90;;;;;;5084425;28;20455;-39
2021/09/26 09:45:24;;;;;;;3.50;3.20;;;15.20;99.90;;;;;;5085042;28;20503;-40
2021/09/26 09:48:14;;;;;;;3.97;3.47;;;15.20;99.90;;;;;;5084636;28;20806;-41
2021/09/26 09:50:57;;;;;;;4.70;3.47;;;15.20;99.90;;;;;;5085337;28;20435;-42
2021/09/26 09:53:31;;;;;;;3.90;3.20;;;15.20;99.90;;;;;;5085129;28;20451;-40
2021/09/26 09:56:14;;;;;;;3.50;3.13;;;15.20;99.90;;;;;;5084804;28;20552;-39
2021/09/26 09:58:47;;;;;;;3.17;2.90;;;15.20;99.90;;;;;;5084737;28;20451;-40
2021/09/26 10:01:24;;;;;;;3.80;3.10;;;15.20;99.90;;;;;;5083245;28;20509;-40
2021/09/26 10:03:56;;;;;;;3.77;3.40;;;15.20;99.90;;;;;;5084650;28;20447;-40
2021/09/26 10:06:30;;;;;;;3.63;3.33;;;15.20;99.90;;;;;;5084224;28;20451;-39
2021/09/26 10:09:03;;;;;;;4.97;3.40;;;15.20;99.90;;;;;;5085032;28;20458;-42
2021/09/26 10:11:36;;;;;;;3.33;3.03;;;15.20;99.90;;;;;;5084359;28;20447;-39
2021/09/26 10:14:07;;;;;;;3.77;3.37;;;15.30;99.90;;;;;;5084666;28;20963;-42
2021/09/26 10:16:38;;;;;;;5.40;3.80;;;15.30;99.90;;;;;;5083441;28;20594;-42
2021/09/26 10:19:09;;;;;;;3.97;3.57;;;15.20;99.90;;;;;;5084698;28;20444;-39
2021/09/26 10:21:40;;;;;;;3.50;3.17;;;15.20;99.90;;;;;;5084282;28;20424;-39
2021/09/26 10:24:12;;;;;;;3.27;2.97;;;15.20;99.90;;;;;;5084813;28;20836;-42
2021/09/26 10:26:47;;;;;;;3.40;3.10;;;15.20;99.90;;;;;;5084268;28;20567;-41
2021/09/26 10:29:20;;;;;;;3.50;3.20;;;15.20;99.90;;;;;;5084310;28;20471;-40
2021/09/26 10:31:52;;;;;;;3.40;3.10;;;15.30;99.90;;;;;;5083211;28;20743;-39
2021/09/26 10:34:25;;;;;;;4.80;3.23;;;15.30;99.90;;;;;;5084416;28;20474;-40
2021/09/26 10:36:57;;;;;;;4.30;3.23;;;15.20;99.90;;;;;;5083823;28;20514;-39
2021/09/26 10:39:29;;;;;;;3.67;2.97;;;15.20;99.90;;;;;;5084658;28;20905;-40
2021/09/26 10:42:10;;;;;;;4.30;3.07;;;15.20;99.90;;;;;;5083982;28;20447;-39
2021/09/26 10:44:44;;;;;;;3.50;3.20;;;15.20;99.90;;;;;;5084399;28;20444;-39
2021/09/26 10:47:20;;;;;;;3.40;3.10;;;15.30;99.90;;;;;;5082878;28;20529;-39
2021/09/26 10:49:52;;;;;;;4.77;3.33;;;15.20;99.90;;;;;;5084204;28;20471;-39
2021/09/26 10:52:34;;;;;;;3.50;3.20;;;15.20;99.90;;;;;;5083531;28;20418;-41
2021/09/26 10:55:31;;;;;;;3.87;3.20;;;15.20;99.90;;;;;;5083601;28;20440;-40
2021/09/26 10:58:20;;;;;;;4.13;3.50;;;15.30;99.90;;;;;;5083576;28;20470;-40
2021/09/26 11:01:01;;;;;;;4.00;3.50;;;15.30;99.90;;;;;;5083613;28;20467;-40
2021/09/26 11:03:39;;;;;;;4.97;3.20;;;15.30;99.90;;;;;;5083511;28;20443;-39
2021/09/26 11:06:28;;;;;;;4.67;3.43;;;15.20;99.90;;;;;;5083629;28;20447;-38
2021/09/26 11:09:00;;;;;;;3.83;3.53;;;15.20;99.90;;;;;;5083550;28;20443;-38
2021/09/26 11:11:39;;;;;;;5.07;3.87;;;15.20;99.90;;;;;;5083270;28;20462;-38
2021/09/26 11:14:11;;;;;;;3.90;3.40;;;15.20;99.90;;;;;;5083556;28;20451;-41
2021/09/26 11:17:07;;;;;;;3.43;3.13;;;15.20;99.90;;;;;;5082364;28;20487;-38
2021/09/26 11:19:53;;;;;;;4.07;3.63;;;15.10;99.90;;;;;;5063335;28;20448;-40
2021/09/26 11:22:24;;;;;;;4.77;3.80;;;15.10;99.90;;;;;;5082941;28;20448;-38
2021/09/26 11:25:00;;;;;;;5.77;3.20;;;15.10;99.90;;;;;;5083623;28;20474;-37
2021/09/26 11:27:39;;;;;;;5.97;3.50;;;15.00;99.90;;;;;;5082991;28;20451;-38
2021/09/26 11:30:25;;;;;;;4.50;4.17;;;14.90;99.90;;;;;;5083281;28;20454;-38
2021/09/26 11:33:02;;;;;;;3.80;3.37;;;14.90;99.90;;;;;;5082555;28;20447;-38
2021/09/26 11:35:40;;;;;;;5.20;3.60;;;14.90;99.90;;;;;;5083133;28;20478;-38
2021/09/26 11:38:14;;;;;;;3.53;3.23;;;14.90;99.90;;;;;;5082612;28;20478;-39
2021/09/26 11:40:55;;;;;;;3.80;3.50;;;15.00;99.90;;;;;;5083101;28;20471;-39
2021/09/26 11:43:28;;;;;;;5.70;3.40;;;15.00;99.90;;;;;;5083288;28;20447;-38
2021/09/26 11:46:02;;;;;;;3.50;3.23;;;15.00;99.90;;;;;;5083064;28;20459;-39
2021/09/26 11:48:38;;;;;;;3.47;3.17;;;15.10;99.90;;;;;;5082225;28;20447;-42
2021/09/26 11:51:12;;;;;;;4.80;3.57;;;15.10;99.90;;;;;;5082572;28;20443;-39
2021/09/26 11:53:44;;;;;;;7.93;3.47;;;15.20;99.90;;;;;;5083083;28;20452;-39
2021/09/26 11:56:21;;;;;;;5.73;3.77;;;15.20;99.90;;;;;;5082533;28;20519;-38
2021/09/26 11:58:56;;;;;;;5.10;4.10;;;15.20;99.90;;;;;;5082906;28;20903;-38
2021/09/26 12:01:35;;;;;;;5.37;4.17;;;15.20;99.90;;;;;;5081487;28;20556;-41
2021/09/26 12:04:09;;;;;;;6.37;4.60;;;15.20;99.90;;;;;;5083261;28;20504;-38
2021/09/26 12:06:41;;;;;;;5.13;3.70;;;15.20;99.90;;;;;;5086793;28;20455;-40
2021/09/26 12:09:13;;;;;;;6.40;3.90;;;15.30;99.90;;;;;;5086870;28;20476;-40
2021/09/26 12:11:52;;;;;;;3.83;3.50;;;15.30;99.90;;;;;;5086755;28;20479;-38
2021/09/26 12:14:29;;;;;;;5.70;3.50;;;15.30;99.90;;;;;;5086982;28;20447;-39
2021/09/26 12:17:04;;;;;;;5.17;3.80;;;15.30;99.90;;;;;;5085765;28;20491;-40
2021/09/26 12:19:36;;;;;;;3.93;3.40;;;15.30;99.90;;;;;;5086922;28;20473;-39
2021/09/26 12:22:10;;;;;;;3.60;3.30;;;15.20;99.90;;;;;;5086598;28;20451;-40
2021/09/26 12:24:47;;;;;;;5.37;3.47;;;15.30;99.90;;;;;;5086857;28;20489;-39
2021/09/26 12:27:22;;;;;;;3.73;3.43;;;15.30;99.90;;;;;;5086624;28;20451;-39
2021/09/26 12:29:56;;;;;;;6.33;3.87;;;15.20;99.90;;;;;;5086385;28;20593;-42
2021/09/26 12:32:30;;;;;;;3.87;3.57;;;15.20;99.90;;;;;;5085558;28;20428;-40
2021/09/26 12:35:02;;;;;;;4.20;3.57;;;15.20;99.90;;;;;;5086992;28;20435;-39
2021/09/26 12:37:35;;;;;;;4.27;3.40;;;15.30;99.90;;;;;;5086470;28;20565;-41
2021/09/26 12:40:15;;;;;;;3.50;3.20;;;15.20;99.90;;;;;;5086343;28;20473;-42
2021/09/26 12:42:53;;;;;;;4.43;3.63;;;15.30;99.90;;;;;;5086199;28;20462;-39
2021/09/26 12:45:32;;;;;;;4.20;3.80;;;15.30;99.90;;;;;;5085975;28;20454;-41
2021/09/26 12:48:04;;;;;;;3.77;3.40;;;15.30;99.90;;;;;;5085703;28;20479;-39
2021/09/26 12:50:40;;;;;;;4.20;3.90;;;15.40;99.90;;;;;;5086025;28;20443;-41
2021/09/26 12:53:16;;;;;;;4.73;4.30;;;15.40;99.90;;;;;;5086284;28;20470;-38
2021/09/26 12:55:55;;;;;;;3.80;3.50;;;15.40;99.90;;;;;;5086491;28;20502;-41
2021/09/26 12:58:36;;;;;;;5.33;3.50;;;15.40;99.90;;;;;;5086262;28;20446;-38
2021/09/26 13:01:18;;;;;;;4.10;3.73;;;15.40;99.90;;;;;;5085180;28;20447;-39
2021/09/26 13:03:54;;;;;;;3.33;3.03;;;15.40;99.90;;;;;;5086044;28;20447;-39
2021/09/26 13:06:31;;;;;;;3.63;3.20;;;15.40;99.90;;;;;;5085505;28;20446;-39
2021/09/26 13:09:16;;;;;;;4.87;3.90;;;15.40;99.90;;;;;;5085776;28;20451;-40
2021/09/26 13:11:50;;;;;;;4.30;3.67;;;15.50;99.90;;;;;;5085414;28;20455;-39
2021/09/26 13:14:36;;;;;;;4.77;3.90;;;15.40;99.90;;;;;;5085995;28;20467;-39
2021/09/26 13:17:17;;;;;;;3.80;3.50;;;15.50;99.90;;;;;;5083269;28;20594;-39
2021/09/26 13:19:51;;;;;;;4.37;3.90;;;15.40;99.90;;;;;;5085498;28;20452;-39